Time;durP1;ratioP1;P1;durP2;ratioP2;P2;SDS_P1;SDS_P2;PMS_P1;PMS_P2;Temp;Humidity;BMP_temperature;BMP_pressure;BME280_temperature;BME280_humidity;BME280_pressure;Samples;Min_cycle;Max_cycle;Signal;HPM_P1;HPM_P2
2021/10/06 00:01:07;;;;;;;7.0;3.1;;;;;;;11.3;78.0;100530;;;;
2021/10/06 00:09:08;;;;;;;6.4;2.8;;;;;;;11.2;77.9;100540;;;;
2021/10/06 00:11:07;;;;;;;6.4;2.8;;;;;;;11.3;78.0;100540;;;;
2021/10/06 00:15:07;;;;;;;6.4;2.8;;;;;;;11.2;78.2;100540;;;;
2021/10/06 00:19:07;;;;;;;6.4;2.8;;;;;;;11.3;78.1;100540;;;;
2021/10/06 00:21:07;;;;;;;6.4;2.8;;;;;;;11.4;77.9;100540;;;;
2021/10/06 00:25:07;;;;;;;6.4;2.8;;;;;;;11.5;77.6;100540;;;;
2021/10/06 00:27:07;;;;;;;6.4;2.8;;;;;;;11.4;77.5;100530;;;;
2021/10/06 00:31:07;;;;;;;5.7;2.5;;;;;;;11.3;78.0;100540;;;;
2021/10/06 00:35:07;;;;;;;5.7;2.5;;;;;;;11.2;78.3;100540;;;;
2021/10/06 00:37:07;;;;;;;5.7;2.5;;;;;;;11.3;77.9;100540;;;;
2021/10/06 00:41:07;;;;;;;5.7;2.5;;;;;;;11.2;78.1;100540;;;;
2021/10/06 00:45:07;;;;;;;5.7;2.5;;;;;;;11.1;77.8;100530;;;;
2021/10/06 00:47:07;;;;;;;5.7;2.5;;;;;;;11.2;78.0;100530;;;;
2021/10/06 00:49:07;;;;;;;5.8;2.5;;;;;;;11.1;77.9;100540;;;;
2021/10/06 00:53:07;;;;;;;5.8;2.5;;;;;;;11.0;77.8;100530;;;;
2021/10/06 00:55:07;;;;;;;5.8;2.5;;;;;;;10.9;77.9;100530;;;;
2021/10/06 00:59:07;;;;;;;5.8;2.5;;;;;;;11.0;78.0;100550;;;;
2021/10/06 01:01:07;;;;;;;5.8;2.5;;;;;;;10.9;78.0;100540;;;;
2021/10/06 01:31:07;;;;;;;7.1;3.0;;;;;;;11.0;78.0;100570;;;;
2021/10/06 01:37:07;;;;;;;7.1;3.0;;;;;;;10.9;77.8;100570;;;;
2021/10/06 01:39:07;;;;;;;7.1;3.0;;;;;;;11.0;77.8;100560;;;;
2021/10/06 01:43:07;;;;;;;7.1;3.0;;;;;;;10.9;77.9;100570;;;;
2021/10/06 01:45:07;;;;;;;7.1;3.0;;;;;;;11.0;77.5;100570;;;;
2021/10/06 01:49:07;;;;;;;7.8;2.9;;;;;;;11.1;77.5;100570;;;;
2021/10/06 01:51:07;;;;;;;7.8;2.9;;;;;;;11.0;77.7;100570;;;;
2021/10/06 01:59:07;;;;;;;7.8;2.9;;;;;;;10.9;78.0;100570;;;;
2021/10/06 02:03:07;;;;;;;7.8;2.9;;;;;;;11.0;77.9;100580;;;;
2021/10/06 02:07:07;;;;;;;6.7;2.5;;;;;;;11.1;77.9;100570;;;;
2021/10/06 02:09:07;;;;;;;6.7;2.5;;;;;;;11.0;77.7;100570;;;;
2021/10/06 02:15:07;;;;;;;6.7;2.5;;;;;;;10.9;78.1;100580;;;;
2021/10/06 02:17:07;;;;;;;6.7;2.5;;;;;;;11.0;77.7;100580;;;;
2021/10/06 02:21:07;;;;;;;6.7;2.5;;;;;;;11.1;77.3;100570;;;;
2021/10/06 02:23:07;;;;;;;6.7;2.5;;;;;;;11.0;77.5;100570;;;;
2021/10/06 02:25:07;;;;;;;6.7;2.5;;;;;;;11.1;77.3;100570;;;;
2021/10/06 02:29:07;;;;;;;5.6;2.3;;;;;;;11.0;77.8;100580;;;;
2021/10/06 02:31:07;;;;;;;5.6;2.3;;;;;;;10.9;78.0;100570;;;;
2021/10/06 02:41:07;;;;;;;5.6;2.3;;;;;;;11.0;78.9;100560;;;;
2021/10/06 02:43:07;;;;;;;5.6;2.3;;;;;;;10.9;79.6;100560;;;;
2021/10/06 02:47:07;;;;;;;6.0;2.5;;;;;;;11.0;78.7;100570;;;;
2021/10/06 02:49:07;;;;;;;6.0;2.5;;;;;;;10.9;78.9;100570;;;;
2021/10/06 02:51:07;;;;;;;6.0;2.5;;;;;;;11.0;79.1;100560;;;;
2021/10/06 02:59:07;;;;;;;6.0;2.5;;;;;;;11.1;78.3;100560;;;;
2021/10/06 03:01:07;;;;;;;6.0;2.5;;;;;;;11.0;78.4;100560;;;;
2021/10/06 03:05:07;;;;;;;6.0;2.5;;;;;;;10.9;78.6;100560;;;;
2021/10/06 03:09:07;;;;;;;6.7;2.8;;;;;;;11.0;78.2;100560;;;;
2021/10/06 03:11:07;;;;;;;6.7;2.8;;;;;;;10.9;78.6;100560;;;;
2021/10/06 03:13:07;;;;;;;6.7;2.8;;;;;;;11.0;78.3;100560;;;;
2021/10/06 03:15:07;;;;;;;6.7;2.8;;;;;;;11.1;77.7;100560;;;;
2021/10/06 03:17:07;;;;;;;6.7;2.8;;;;;;;11.0;77.8;100570;;;;
2021/10/06 03:19:07;;;;;;;6.7;2.8;;;;;;;10.9;78.0;100570;;;;
2021/10/06 03:29:07;;;;;;;5.4;2.6;;;;;;;11.0;77.7;100570;;;;
2021/10/06 03:33:07;;;;;;;5.4;2.6;;;;;;;10.9;78.2;100580;;;;
2021/10/06 03:41:07;;;;;;;5.4;2.6;;;;;;;10.8;78.7;100590;;;;
2021/10/06 03:47:07;;;;;;;6.9;2.5;;;;;;;10.7;78.9;100600;;;;
2021/10/06 03:49:07;;;;;;;6.9;2.5;;;;;;;10.8;79.2;100600;;;;
2021/10/06 03:51:08;;;;;;;6.9;2.5;;;;;;;10.7;79.1;100600;;;;
2021/10/06 03:53:07;;;;;;;6.9;2.5;;;;;;;10.8;79.2;100600;;;;
2021/10/06 03:55:07;;;;;;;6.9;2.5;;;;;;;10.9;78.7;100600;;;;
2021/10/06 03:59:07;;;;;;;6.9;2.5;;;;;;;10.7;79.2;100600;;;;
2021/10/06 04:01:07;;;;;;;6.9;2.5;;;;;;;10.8;79.5;100610;;;;
2021/10/06 04:05:07;;;;;;;6.9;2.5;;;;;;;10.7;79.6;100600;;;;
2021/10/06 04:07:07;;;;;;;4.5;2.7;;;;;;;10.6;80.0;100610;;;;
2021/10/06 04:09:07;;;;;;;4.5;2.7;;;;;;;10.7;79.9;100610;;;;
2021/10/06 04:15:07;;;;;;;4.5;2.7;;;;;;;10.6;80.4;100610;;;;
2021/10/06 04:23:07;;;;;;;4.5;2.7;;;;;;;10.5;80.8;100610;;;;
2021/10/06 04:25:07;;;;;;;4.5;2.7;;;;;;;10.6;80.7;100610;;;;
2021/10/06 04:33:07;;;;;;;6.0;3.2;;;;;;;10.7;80.5;100630;;;;
2021/10/06 04:35:07;;;;;;;6.0;3.2;;;;;;;10.6;80.7;100620;;;;
2021/10/06 04:37:07;;;;;;;6.0;3.2;;;;;;;10.7;80.6;100620;;;;
2021/10/06 04:39:07;;;;;;;6.0;3.2;;;;;;;10.6;80.9;100630;;;;
2021/10/06 04:45:11;;;;;;;6.0;3.2;;;;;;;10.5;81.3;100640;;;;
2021/10/06 04:53:07;;;;;;;4.8;2.6;;;;;;;10.4;81.6;100630;;;;
2021/10/06 05:05:07;;;;;;;4.8;2.6;;;;;;;10.5;82.0;100630;;;;
2021/10/06 05:07:07;;;;;;;7.1;3.2;;;;;;;10.4;82.1;100630;;;;
2021/10/06 05:13:07;;;;;;;7.1;3.2;;;;;;;10.3;82.0;100630;;;;
2021/10/06 05:27:10;;;;;;;7.5;3.5;;;;;;;10.4;82.3;100640;;;;
2021/10/06 05:29:07;;;;;;;7.5;3.5;;;;;;;10.3;82.4;100640;;;;
2021/10/06 05:31:07;;;;;;;7.5;3.5;;;;;;;10.2;82.9;100640;;;;
2021/10/06 05:33:07;;;;;;;7.5;3.5;;;;;;;10.3;82.8;100640;;;;
2021/10/06 05:41:07;;;;;;;7.5;3.5;;;;;;;10.4;82.6;100630;;;;
2021/10/06 05:43:07;;;;;;;7.5;3.5;;;;;;;10.2;82.8;100640;;;;
2021/10/06 05:47:07;;;;;;;7.8;2.8;;;;;;;10.3;82.6;100650;;;;
2021/10/06 05:49:07;;;;;;;7.8;2.8;;;;;;;10.2;83.0;100650;;;;
2021/10/06 05:55:07;;;;;;;7.8;2.8;;;;;;;10.3;82.9;100640;;;;
2021/10/06 06:01:07;;;;;;;7.8;2.8;;;;;;;10.2;82.6;100650;;;;
2021/10/06 06:03:07;;;;;;;7.8;2.8;;;;;;;10.3;82.6;100650;;;;
2021/10/06 06:05:07;;;;;;;7.8;2.8;;;;;;;10.2;82.8;100650;;;;
2021/10/06 06:11:07;;;;;;;6.1;3.1;;;;;;;10.3;83.0;100660;;;;
2021/10/06 06:13:07;;;;;;;6.1;3.1;;;;;;;10.2;83.0;100660;;;;
2021/10/06 06:21:07;;;;;;;6.1;3.1;;;;;;;10.3;83.6;100660;;;;
2021/10/06 06:23:07;;;;;;;6.1;3.1;;;;;;;10.2;84.0;100670;;;;
2021/10/06 06:25:07;;;;;;;6.1;3.1;;;;;;;10.1;84.3;100660;;;;
2021/10/06 06:29:07;;;;;;;6.5;3.6;;;;;;;10.2;84.3;100670;;;;
2021/10/06 06:31:07;;;;;;;6.5;3.6;;;;;;;10.3;84.0;100660;;;;
2021/10/06 06:37:07;;;;;;;6.5;3.6;;;;;;;10.2;84.3;100670;;;;
2021/10/06 06:43:07;;;;;;;6.5;3.6;;;;;;;10.3;84.6;100670;;;;
2021/10/06 06:45:07;;;;;;;6.5;3.6;;;;;;;10.4;84.2;100690;;;;
2021/10/06 06:47:07;;;;;;;8.6;3.7;;;;;;;10.3;84.4;100680;;;;
2021/10/06 06:49:07;;;;;;;8.6;3.7;;;;;;;10.2;84.7;100680;;;;
2021/10/06 06:53:07;;;;;;;8.6;3.7;;;;;;;10.3;84.7;100690;;;;
2021/10/06 06:57:08;;;;;;;8.6;3.7;;;;;;;10.1;84.7;100690;;;;
2021/10/06 06:59:07;;;;;;;8.6;3.7;;;;;;;10.2;85.0;100700;;;;
2021/10/06 07:03:07;;;;;;;8.6;3.7;;;;;;;10.3;85.0;100700;;;;
2021/10/06 07:05:07;;;;;;;8.6;3.7;;;;;;;10.4;85.0;100700;;;;
2021/10/06 07:21:07;;;;;;;5.8;3.7;;;;;;;10.6;84.8;100730;;;;
2021/10/06 07:23:07;;;;;;;5.8;3.7;;;;;;;10.5;84.8;100730;;;;
2021/10/06 07:27:07;;;;;;;7.0;4.2;;;;;;;10.6;84.9;100720;;;;
2021/10/06 07:29:07;;;;;;;7.0;4.2;;;;;;;10.5;85.1;100730;;;;
2021/10/06 07:33:07;;;;;;;7.0;4.2;;;;;;;10.6;85.1;100730;;;;
2021/10/06 07:37:07;;;;;;;7.0;4.2;;;;;;;10.5;85.5;100730;;;;
2021/10/06 07:39:07;;;;;;;7.0;4.2;;;;;;;10.6;85.1;100730;;;;
2021/10/06 07:49:07;;;;;;;5.9;4.2;;;;;;;10.5;85.9;100740;;;;
2021/10/06 07:55:07;;;;;;;5.9;4.2;;;;;;;10.6;86.4;100760;;;;
2021/10/06 07:59:07;;;;;;;5.9;4.2;;;;;;;10.7;85.8;100760;;;;
2021/10/06 08:03:07;;;;;;;5.9;4.2;;;;;;;10.6;86.1;100770;;;;
2021/10/06 08:13:07;;;;;;;5.7;3.9;;;;;;;10.5;87.2;100780;;;;
2021/10/06 08:15:07;;;;;;;5.7;3.9;;;;;;;10.7;86.8;100780;;;;
2021/10/06 08:17:07;;;;;;;5.7;3.9;;;;;;;10.6;87.3;100780;;;;
2021/10/06 08:23:08;;;;;;;5.7;3.9;;;;;;;10.7;87.2;100790;;;;
2021/10/06 08:25:07;;;;;;;5.7;3.9;;;;;;;10.6;87.2;100790;;;;
2021/10/06 08:27:08;;;;;;;4.3;3.9;;;;;;;10.7;87.1;100800;;;;
2021/10/06 08:31:07;;;;;;;4.3;3.9;;;;;;;10.8;87.0;100800;;;;
2021/10/06 08:33:07;;;;;;;4.3;3.9;;;;;;;10.9;86.5;100810;;;;
2021/10/06 08:35:07;;;;;;;4.3;3.9;;;;;;;10.8;86.8;100820;;;;
2021/10/06 08:39:08;;;;;;;4.3;3.9;;;;;;;10.7;87.1;100820;;;;
2021/10/06 08:47:07;;;;;;;4.6;4.2;;;;;;;10.8;87.3;100830;;;;
2021/10/06 08:49:07;;;;;;;4.6;4.2;;;;;;;10.7;87.3;100830;;;;
2021/10/06 08:51:17;;;;;;;4.6;4.2;;;;;;;10.8;87.4;100830;;;;
2021/10/06 08:53:07;;;;;;;4.6;4.2;;;;;;;10.7;87.4;100830;;;;
2021/10/06 09:03:07;;;;;;;4.6;4.2;;;;;;;10.8;87.4;100850;;;;
2021/10/06 09:05:07;;;;;;;4.6;4.2;;;;;;;10.9;87.5;100850;;;;
2021/10/06 09:09:07;;;;;;;5.3;4.7;;;;;;;11.0;87.7;100850;;;;
2021/10/06 09:13:07;;;;;;;5.3;4.7;;;;;;;11.1;87.7;100860;;;;
2021/10/06 09:17:07;;;;;;;5.3;4.7;;;;;;;11.2;88.1;100870;;;;
2021/10/06 09:23:07;;;;;;;5.3;4.7;;;;;;;11.3;87.7;100880;;;;
2021/10/06 09:29:07;;;;;;;10.0;6.4;;;;;;;11.2;87.7;100880;;;;
2021/10/06 09:31:07;;;;;;;10.0;6.4;;;;;;;11.3;88.1;100880;;;;
2021/10/06 09:33:07;;;;;;;10.0;6.4;;;;;;;11.4;87.8;100890;;;;
2021/10/06 09:59:07;;;;;;;10.0;7.8;;;;;;;11.3;88.7;100920;;;;
2021/10/06 10:01:07;;;;;;;10.0;7.8;;;;;;;11.4;88.4;100920;;;;
2021/10/06 10:03:07;;;;;;;10.0;7.8;;;;;;;11.5;88.8;100920;;;;
2021/10/06 10:07:07;;;;;;;11.2;9.0;;;;;;;11.7;89.0;100920;;;;
2021/10/06 10:09:07;;;;;;;11.2;9.0;;;;;;;11.8;88.8;100920;;;;
2021/10/06 10:11:07;;;;;;;11.2;9.0;;;;;;;11.7;88.6;100920;;;;
2021/10/06 10:17:07;;;;;;;11.2;9.0;;;;;;;11.6;89.3;100930;;;;
2021/10/06 10:19:07;;;;;;;11.2;9.0;;;;;;;11.8;89.3;100920;;;;
2021/10/06 10:23:12;;;;;;;11.2;9.0;;;;;;;11.7;89.6;100930;;;;
2021/10/06 10:25:07;;;;;;;11.2;9.0;;;;;;;11.8;89.9;100920;;;;
2021/10/06 10:29:07;;;;;;;10.4;9.3;;;;;;;11.9;89.6;100930;;;;
2021/10/06 10:33:07;;;;;;;10.4;9.3;;;;;;;11.8;89.1;100950;;;;
2021/10/06 10:35:07;;;;;;;10.4;9.3;;;;;;;11.9;89.3;100950;;;;
2021/10/06 10:37:07;;;;;;;10.4;9.3;;;;;;;11.8;89.1;100960;;;;
2021/10/06 10:41:07;;;;;;;10.4;9.3;;;;;;;11.7;89.8;100960;;;;
2021/10/06 10:45:07;;;;;;;10.4;9.3;;;;;;;11.8;89.8;100960;;;;
2021/10/06 10:47:07;;;;;;;12.9;9.1;;;;;;;11.6;90.1;100960;;;;
2021/10/06 10:51:07;;;;;;;12.9;9.1;;;;;;;11.7;90.1;100940;;;;
2021/10/06 10:59:07;;;;;;;12.9;9.1;;;;;;;11.6;90.2;100950;;;;
2021/10/06 11:01:07;;;;;;;12.9;9.1;;;;;;;11.5;90.7;100950;;;;
2021/10/06 11:03:07;;;;;;;12.9;9.1;;;;;;;11.4;91.4;100960;;;;
2021/10/06 11:05:07;;;;;;;12.9;9.1;;;;;;;11.6;91.8;100950;;;;
2021/10/06 11:09:07;;;;;;;15.9;12.8;;;;;;;11.7;91.5;100960;;;;
2021/10/06 11:15:07;;;;;;;15.9;12.8;;;;;;;11.8;91.7;100970;;;;
2021/10/06 11:17:07;;;;;;;15.9;12.8;;;;;;;11.7;91.7;100970;;;;
2021/10/06 11:21:07;;;;;;;15.9;12.8;;;;;;;11.8;91.9;100970;;;;
2021/10/06 11:23:09;;;;;;;15.9;12.8;;;;;;;11.9;92.3;100970;;;;
2021/10/06 11:25:07;;;;;;;13.7;9.5;;;;;;;12.0;91.9;100980;;;;
2021/10/06 11:27:08;;;;;;;13.7;9.5;;;;;;;11.9;92.0;100980;;;;
2021/10/06 11:29:07;;;;;;;13.7;9.5;;;;;;;12.0;92.1;100970;;;;
2021/10/06 11:31:07;;;;;;;13.7;9.5;;;;;;;12.1;92.4;100990;;;;
2021/10/06 11:35:07;;;;;;;13.7;9.5;;;;;;;12.2;92.0;100990;;;;
2021/10/06 11:37:07;;;;;;;13.7;9.5;;;;;;;12.4;92.1;100980;;;;
2021/10/06 11:41:08;;;;;;;13.7;9.5;;;;;;;12.6;91.9;100990;;;;
2021/10/06 11:43:07;;;;;;;13.7;9.5;;;;;;;12.7;91.5;101000;;;;
2021/10/06 11:49:07;;;;;;;13.5;6.0;;;;;;;12.8;90.9;101030;;;;
2021/10/06 11:51:07;;;;;;;13.5;6.0;;;;;;;12.7;90.7;101020;;;;
2021/10/06 11:53:07;;;;;;;13.5;6.0;;;;;;;12.6;90.6;101030;;;;
2021/10/06 11:57:07;;;;;;;13.5;6.0;;;;;;;12.7;91.1;101040;;;;
2021/10/06 12:01:08;;;;;;;13.5;6.0;;;;;;;12.6;90.4;101050;;;;
2021/10/06 12:05:07;;;;;;;11.7;5.7;;;;;;;12.8;91.1;101060;;;;
2021/10/06 12:07:07;;;;;;;11.7;5.7;;;;;;;12.5;90.2;101070;;;;
2021/10/06 12:09:09;;;;;;;11.7;5.7;;;;;;;12.7;91.0;101070;;;;
2021/10/06 12:11:07;;;;;;;11.7;5.7;;;;;;;12.8;90.8;101070;;;;
2021/10/06 12:13:07;;;;;;;11.7;5.7;;;;;;;12.9;90.7;101070;;;;
2021/10/06 12:17:07;;;;;;;11.7;5.7;;;;;;;12.8;89.8;101070;;;;
2021/10/06 12:19:07;;;;;;;11.7;5.7;;;;;;;13.1;90.3;101080;;;;
2021/10/06 12:21:07;;;;;;;11.7;5.7;;;;;;;12.9;89.7;101080;;;;
2021/10/06 12:29:07;;;;;;;8.6;5.3;;;;;;;13.0;89.8;101100;;;;
2021/10/06 12:35:07;;;;;;;8.6;5.3;;;;;;;13.1;89.1;101090;;;;
2021/10/06 12:37:08;;;;;;;8.6;5.3;;;;;;;13.0;89.1;101100;;;;
2021/10/06 12:45:07;;;;;;;6.0;3.7;;;;;;;13.1;89.3;101110;;;;
2021/10/06 12:47:07;;;;;;;6.0;3.7;;;;;;;12.9;89.4;101110;;;;
2021/10/06 12:53:07;;;;;;;6.0;3.7;;;;;;;13.0;89.8;101120;;;;
2021/10/06 12:57:07;;;;;;;6.0;3.7;;;;;;;13.1;90.0;101120;;;;
2021/10/06 12:59:08;;;;;;;6.0;3.7;;;;;;;13.0;89.7;101130;;;;
2021/10/06 13:01:07;;;;;;;6.0;3.7;;;;;;;13.1;90.0;101130;;;;
2021/10/06 13:03:07;;;;;;;6.0;3.7;;;;;;;12.9;89.7;101130;;;;
2021/10/06 13:09:07;;;;;;;7.3;4.4;;;;;;;13.0;90.1;101140;;;;
2021/10/06 13:11:07;;;;;;;7.3;4.4;;;;;;;13.1;89.8;101140;;;;
2021/10/06 13:13:07;;;;;;;7.3;4.4;;;;;;;13.0;89.2;101150;;;;
2021/10/06 13:17:08;;;;;;;7.3;4.4;;;;;;;12.9;89.6;101150;;;;
2021/10/06 13:21:07;;;;;;;7.3;4.4;;;;;;;12.8;90.1;101160;;;;
2021/10/06 13:23:07;;;;;;;7.3;4.4;;;;;;;12.9;90.2;101160;;;;
2021/10/06 13:25:07;;;;;;;8.8;4.2;;;;;;;13.0;90.1;101160;;;;
2021/10/06 13:31:07;;;;;;;8.8;4.2;;;;;;;13.1;89.1;101170;;;;
2021/10/06 13:35:07;;;;;;;8.8;4.2;;;;;;;13.2;88.9;101180;;;;
2021/10/06 13:37:07;;;;;;;8.8;4.2;;;;;;;13.1;88.8;101180;;;;
2021/10/06 13:45:07;;;;;;;8.8;3.6;;;;;;;13.2;89.2;101190;;;;
2021/10/06 13:49:07;;;;;;;8.8;3.6;;;;;;;13.3;88.8;101210;;;;
2021/10/06 13:51:07;;;;;;;8.8;3.6;;;;;;;13.4;88.7;101210;;;;
2021/10/06 13:55:07;;;;;;;8.8;3.6;;;;;;;13.2;88.5;101210;;;;
2021/10/06 14:01:07;;;;;;;8.8;3.6;;;;;;;13.3;88.2;101210;;;;
2021/10/06 14:03:07;;;;;;;8.8;3.6;;;;;;;13.4;88.1;101220;;;;
2021/10/06 14:23:07;;;;;;;6.0;2.8;;;;;;;13.5;87.8;101250;;;;
2021/10/06 14:25:07;;;;;;;7.7;3.8;;;;;;;13.4;87.9;101260;;;;
2021/10/06 14:27:09;;;;;;;7.7;3.8;;;;;;;13.5;87.8;101250;;;;
2021/10/06 14:31:07;;;;;;;7.7;3.8;;;;;;;13.6;88.0;101260;;;;
2021/10/06 14:33:08;;;;;;;7.7;3.8;;;;;;;13.5;87.6;101260;;;;
2021/10/06 14:35:07;;;;;;;7.7;3.8;;;;;;;13.4;88.1;101270;;;;
2021/10/06 14:37:08;;;;;;;7.7;3.8;;;;;;;13.5;88.3;101270;;;;
2021/10/06 14:39:07;;;;;;;7.7;3.8;;;;;;;13.6;88.6;101270;;;;
2021/10/06 14:43:07;;;;;;;7.7;3.8;;;;;;;13.7;88.1;101270;;;;
2021/10/06 14:45:07;;;;;;;8.3;4.9;;;;;;;13.8;88.6;101280;;;;
2021/10/06 14:47:07;;;;;;;8.3;4.9;;;;;;;13.7;87.8;101280;;;;
2021/10/06 14:49:07;;;;;;;8.3;4.9;;;;;;;13.9;87.9;101270;;;;
2021/10/06 14:55:08;;;;;;;8.3;4.9;;;;;;;13.7;87.1;101290;;;;
2021/10/06 15:03:07;;;;;;;8.3;4.9;;;;;;;13.6;88.0;101310;;;;
2021/10/06 15:09:10;;;;;;;9.8;4.5;;;;;;;13.7;88.0;101320;;;;
2021/10/06 15:11:07;;;;;;;9.8;4.5;;;;;;;13.5;88.0;101320;;;;
2021/10/06 15:13:07;;;;;;;9.8;4.5;;;;;;;13.6;88.8;101320;;;;
2021/10/06 15:17:07;;;;;;;9.8;4.5;;;;;;;13.5;88.7;101330;;;;
2021/10/06 15:21:07;;;;;;;9.8;4.5;;;;;;;13.4;88.6;101330;;;;
2021/10/06 15:25:07;;;;;;;12.9;4.9;;;;;;;13.5;89.7;101330;;;;
2021/10/06 15:27:07;;;;;;;12.9;4.9;;;;;;;13.6;89.5;101340;;;;
2021/10/06 15:29:07;;;;;;;12.9;4.9;;;;;;;13.5;89.5;101340;;;;
2021/10/06 15:31:07;;;;;;;12.9;4.9;;;;;;;13.7;89.5;101340;;;;
2021/10/06 15:33:07;;;;;;;12.9;4.9;;;;;;;13.5;89.0;101350;;;;
2021/10/06 15:35:07;;;;;;;12.9;4.9;;;;;;;13.6;88.9;101350;;;;
2021/10/06 15:37:07;;;;;;;12.9;4.9;;;;;;;13.4;88.9;101350;;;;
2021/10/06 15:39:07;;;;;;;12.9;4.9;;;;;;;13.3;89.0;101360;;;;
2021/10/06 15:43:08;;;;;;;12.9;4.9;;;;;;;13.2;89.3;101360;;;;
2021/10/06 15:47:07;;;;;;;13.7;4.4;;;;;;;13.3;89.6;101360;;;;
2021/10/06 15:49:07;;;;;;;13.7;4.4;;;;;;;13.2;89.6;101370;;;;
2021/10/06 15:55:07;;;;;;;13.7;4.4;;;;;;;13.4;89.9;101380;;;;
2021/10/06 15:59:07;;;;;;;13.7;4.4;;;;;;;13.3;89.6;101390;;;;
2021/10/06 16:01:08;;;;;;;13.7;4.4;;;;;;;13.4;89.7;101390;;;;
2021/10/06 16:07:07;;;;;;;16.4;6.0;;;;;;;13.6;89.1;101400;;;;
2021/10/06 16:09:08;;;;;;;16.4;6.0;;;;;;;13.5;89.1;101410;;;;
2021/10/06 16:13:07;;;;;;;16.4;6.0;;;;;;;13.4;89.2;101420;;;;
2021/10/06 16:17:07;;;;;;;16.4;6.0;;;;;;;13.3;89.0;101420;;;;
2021/10/06 16:21:08;;;;;;;16.4;6.0;;;;;;;13.2;89.3;101430;;;;
2021/10/06 16:23:07;;;;;;;16.4;6.0;;;;;;;13.1;89.6;101440;;;;
2021/10/06 16:25:07;;;;;;;18.7;5.6;;;;;;;13.2;89.7;101450;;;;
2021/10/06 16:41:07;;;;;;;18.7;5.6;;;;;;;13.4;89.2;101480;;;;
2021/10/06 16:43:07;;;;;;;18.7;5.6;;;;;;;13.3;89.3;101490;;;;
2021/10/06 16:45:07;;;;;;;13.4;4.9;;;;;;;13.4;88.6;101500;;;;
2021/10/06 16:47:07;;;;;;;13.4;4.9;;;;;;;13.3;88.9;101500;;;;
2021/10/06 16:53:07;;;;;;;13.4;4.9;;;;;;;13.2;89.2;101510;;;;
2021/10/06 16:55:07;;;;;;;13.4;4.9;;;;;;;13.3;89.0;101510;;;;
2021/10/06 17:05:07;;;;;;;15.0;5.7;;;;;;;13.2;88.5;101530;;;;
2021/10/06 17:09:07;;;;;;;15.0;5.7;;;;;;;13.3;88.7;101540;;;;
2021/10/06 17:15:07;;;;;;;15.0;5.7;;;;;;;13.2;88.8;101550;;;;
2021/10/06 17:21:07;;;;;;;15.0;5.7;;;;;;;13.1;89.2;101560;;;;
2021/10/06 17:25:07;;;;;;;26.2;8.7;;;;;;;13.2;90.1;101570;;;;
2021/10/06 17:27:07;;;;;;;26.2;8.7;;;;;;;13.3;89.6;101570;;;;
2021/10/06 17:29:07;;;;;;;26.2;8.7;;;;;;;13.4;89.5;101560;;;;
2021/10/06 17:47:07;;;;;;;15.0;6.4;;;;;;;13.3;89.9;101610;;;;
2021/10/06 17:49:07;;;;;;;15.0;6.4;;;;;;;13.1;90.4;101610;;;;
2021/10/06 17:53:12;;;;;;;15.0;6.4;;;;;;;13.0;91.6;101620;;;;
2021/10/06 17:55:07;;;;;;;15.0;6.4;;;;;;;13.1;91.4;101620;;;;
2021/10/06 18:01:07;;;;;;;15.0;6.4;;;;;;;13.0;91.6;101640;;;;
2021/10/06 18:05:07;;;;;;;23.6;10.7;;;;;;;13.1;91.6;101650;;;;
2021/10/06 18:07:07;;;;;;;23.6;10.7;;;;;;;13.0;91.3;101650;;;;
2021/10/06 18:09:07;;;;;;;23.6;10.7;;;;;;;13.1;91.5;101650;;;;
2021/10/06 18:11:07;;;;;;;23.6;10.7;;;;;;;13.0;91.5;101660;;;;
2021/10/06 18:13:07;;;;;;;23.6;10.7;;;;;;;13.1;91.7;101660;;;;
2021/10/06 18:15:07;;;;;;;23.6;10.7;;;;;;;13.0;91.5;101660;;;;
2021/10/06 18:21:07;;;;;;;23.6;10.7;;;;;;;12.9;91.5;101670;;;;
2021/10/06 18:29:07;;;;;;;26.1;11.4;;;;;;;13.0;92.2;101680;;;;
2021/10/06 18:33:07;;;;;;;26.1;11.4;;;;;;;12.9;91.9;101680;;;;
2021/10/06 18:37:07;;;;;;;26.1;11.4;;;;;;;13.0;92.2;101690;;;;
2021/10/06 18:41:07;;;;;;;26.1;11.4;;;;;;;13.1;91.9;101700;;;;
2021/10/06 18:45:07;;;;;;;25.2;9.9;;;;;;;13.0;91.4;101700;;;;
2021/10/06 18:49:07;;;;;;;25.2;9.9;;;;;;;13.1;91.3;101710;;;;
2021/10/06 18:51:07;;;;;;;25.2;9.9;;;;;;;13.0;90.8;101710;;;;
2021/10/06 18:53:07;;;;;;;25.2;9.9;;;;;;;13.1;91.2;101720;;;;
2021/10/06 19:01:07;;;;;;;25.2;9.9;;;;;;;13.0;91.1;101730;;;;
2021/10/06 19:07:07;;;;;;;23.8;10.3;;;;;;;13.1;91.4;101740;;;;
2021/10/06 19:09:07;;;;;;;23.8;10.3;;;;;;;13.0;91.3;101740;;;;
2021/10/06 19:11:07;;;;;;;23.8;10.3;;;;;;;13.1;91.3;101740;;;;
2021/10/06 19:15:07;;;;;;;23.8;10.3;;;;;;;13.0;91.3;101750;;;;
2021/10/06 19:19:07;;;;;;;23.8;10.3;;;;;;;12.9;91.1;101760;;;;
2021/10/06 19:41:07;;;;;;;23.7;10.8;;;;;;;12.8;90.8;101790;;;;
2021/10/06 19:45:07;;;;;;;23.0;12.4;;;;;;;12.7;91.1;101800;;;;
2021/10/06 19:47:08;;;;;;;23.0;12.4;;;;;;;12.8;90.7;101800;;;;
2021/10/06 19:49:07;;;;;;;23.0;12.4;;;;;;;12.7;90.8;101800;;;;
2021/10/06 19:51:07;;;;;;;23.0;12.4;;;;;;;12.6;90.9;101800;;;;
2021/10/06 19:53:08;;;;;;;23.0;12.4;;;;;;;12.7;91.2;101810;;;;
2021/10/06 19:57:07;;;;;;;23.0;12.4;;;;;;;12.6;90.8;101810;;;;
2021/10/06 19:59:07;;;;;;;23.0;12.4;;;;;;;12.7;91.0;101810;;;;
2021/10/06 20:01:08;;;;;;;23.0;12.4;;;;;;;12.6;90.7;101810;;;;
2021/10/06 20:25:07;;;;;;;23.2;13.2;;;;;;;12.7;91.0;101840;;;;
2021/10/06 20:27:07;;;;;;;23.2;13.2;;;;;;;12.6;90.8;101840;;;;
2021/10/06 20:29:08;;;;;;;23.2;13.2;;;;;;;12.7;91.1;101840;;;;
2021/10/06 20:43:07;;;;;;;23.2;13.2;;;;;;;12.6;91.5;101860;;;;
2021/10/06 20:45:07;;;;;;;22.3;11.3;;;;;;;12.7;91.5;101860;;;;
2021/10/06 20:51:07;;;;;;;22.3;11.3;;;;;;;12.6;91.7;101870;;;;
2021/10/06 21:01:10;;;;;;;22.3;11.3;;;;;;;12.7;92.0;101880;;;;
2021/10/06 21:03:07;;;;;;;22.3;11.3;;;;;;;12.6;91.9;101880;;;;
2021/10/06 21:05:08;;;;;;;19.8;10.9;;;;;;;12.7;91.7;101880;;;;
2021/10/06 21:15:07;;;;;;;19.8;10.9;;;;;;;12.8;91.3;101880;;;;
2021/10/06 21:27:07;;;;;;;22.0;12.0;;;;;;;12.7;90.8;101900;;;;
2021/10/06 21:31:07;;;;;;;22.0;12.0;;;;;;;12.8;91.1;101900;;;;
2021/10/06 21:33:07;;;;;;;22.0;12.0;;;;;;;12.6;90.7;101900;;;;
2021/10/06 21:35:07;;;;;;;22.0;12.0;;;;;;;12.7;90.7;101900;;;;
2021/10/06 21:37:07;;;;;;;22.0;12.0;;;;;;;12.8;90.8;101900;;;;
2021/10/06 21:39:07;;;;;;;22.0;12.0;;;;;;;12.7;90.5;101900;;;;
2021/10/06 21:41:07;;;;;;;22.0;12.0;;;;;;;12.8;90.2;101900;;;;
2021/10/06 21:45:07;;;;;;;26.7;13.7;;;;;;;12.7;90.0;101900;;;;
2021/10/06 21:53:07;;;;;;;26.7;13.7;;;;;;;12.6;89.9;101910;;;;
2021/10/06 22:01:07;;;;;;;26.7;13.7;;;;;;;12.5;89.1;101920;;;;
2021/10/06 22:07:07;;;;;;;25.7;13.8;;;;;;;12.4;89.3;101930;;;;
2021/10/06 22:15:07;;;;;;;25.7;13.8;;;;;;;12.3;89.2;101930;;;;
2021/10/06 22:29:07;;;;;;;34.8;17.9;;;;;;;12.2;89.1;101970;;;;
2021/10/06 22:37:07;;;;;;;34.8;17.9;;;;;;;12.4;88.3;101980;;;;
2021/10/06 22:39:07;;;;;;;34.8;17.9;;;;;;;12.3;88.4;101970;;;;
2021/10/06 22:47:07;;;;;;;30.9;18.8;;;;;;;12.4;88.9;101980;;;;
2021/10/06 22:49:07;;;;;;;30.9;18.8;;;;;;;12.3;88.8;101980;;;;
2021/10/06 22:53:07;;;;;;;30.9;18.8;;;;;;;12.4;88.7;101990;;;;
2021/10/06 22:55:07;;;;;;;30.9;18.8;;;;;;;12.3;88.7;101990;;;;
2021/10/06 22:59:07;;;;;;;30.9;18.8;;;;;;;12.2;88.3;102000;;;;
2021/10/06 23:01:07;;;;;;;30.9;18.8;;;;;;;12.3;88.4;102000;;;;
2021/10/06 23:05:07;;;;;;;34.3;20.4;;;;;;;12.2;88.7;102000;;;;
2021/10/06 23:13:07;;;;;;;34.3;20.4;;;;;;;12.1;88.4;102010;;;;
2021/10/06 23:15:07;;;;;;;34.3;20.4;;;;;;;12.2;88.4;102010;;;;
2021/10/06 23:19:07;;;;;;;34.3;20.4;;;;;;;12.1;88.1;102010;;;;
2021/10/06 23:27:07;;;;;;;47.1;24.2;;;;;;;12.0;88.5;102010;;;;
2021/10/06 23:33:07;;;;;;;47.1;24.2;;;;;;;11.9;88.2;102020;;;;
2021/10/06 23:47:07;;;;;;;47.3;25.6;;;;;;;11.8;87.8;102030;;;;
2021/10/06 23:51:07;;;;;;;47.3;25.6;;;;;;;11.7;88.1;102040;;;;
2021/10/06 23:55:07;;;;;;;47.3;25.6;;;;;;;11.6;87.8;102040;;;;
